Badajoz, Spain
Current Conditions -  °F | °C
As of 8:29 AM on Wednesday 22 Oct 2014 (Local Time) from LEBZ Reporting Station
Light Fog Light Fog  
Wind Chill: 55°   Ceiling: Unl
Heat Index: 55°   Visibility: 1.8mi
Dew Point: 55°   Wind: 0mph
Humidity: 100%   Direction: NA
Pressure: 30.3"   Gusts: NA
Location:  38.88°N, 6.97°W
Report Text: LEBZ 220629Z 00000KT 3000 MIFG NSC 13/13 Q1026
Loading
Personal Weather Stations






























Interactive Weather Map
Tropical Storm Tracking
New forecast layout! Learn more

10-Day Weather Forecast

Advertisements
Track Severe Weather on mobile